createdAt,value
2023-03-20T00:02:04.157Z,27.57
2023-03-20T00:04:31.061Z,28.43
2023-03-20T00:06:57.977Z,28.77
2023-03-20T00:09:26.763Z,24.80
2023-03-20T00:11:54.325Z,24.80
2023-03-20T00:14:22.622Z,19.27
2023-03-20T00:16:49.780Z,19.03
2023-03-20T00:19:18.584Z,18.13
2023-03-20T00:21:46.806Z,19.47
2023-03-20T00:24:14.464Z,17.63
2023-03-20T00:26:41.342Z,19.53
2023-03-20T00:29:12.093Z,19.63
2023-03-20T00:31:39.781Z,20.07
2023-03-20T00:34:12.047Z,18.17
2023-03-20T00:36:38.942Z,18.90
2023-03-20T00:39:06.129Z,17.90
2023-03-20T00:41:46.733Z,17.47
2023-03-20T00:44:38.073Z,17.80
2023-03-20T00:47:16.957Z,17.90
2023-03-20T00:49:45.945Z,18.00
2023-03-20T00:52:12.885Z,18.90
2023-03-20T00:54:39.681Z,20.27
2023-03-20T00:57:12.696Z,22.00
2023-03-20T00:59:42.176Z,21.70
2023-03-20T01:02:10.190Z,20.70
2023-03-20T01:04:39.314Z,19.67
2023-03-20T01:07:07.045Z,20.00
2023-03-20T01:09:33.845Z,20.60
2023-03-20T01:12:01.020Z,20.40
2023-03-20T01:14:27.803Z,20.57
2023-03-20T01:16:54.791Z,22.37
2023-03-20T01:19:21.669Z,21.43
2023-03-20T01:21:48.603Z,22.17
2023-03-20T01:24:15.641Z,22.67
2023-03-20T01:26:44.041Z,19.83
2023-03-20T01:29:24.741Z,21.63
2023-03-20T01:31:53.098Z,20.30
2023-03-20T01:34:21.596Z,19.53
2023-03-20T01:36:56.348Z,22.00
2023-03-20T01:39:28.319Z,21.43
2023-03-20T01:41:55.116Z,21.47
2023-03-20T01:44:30.557Z,23.33
2023-03-20T01:47:00.227Z,22.70
2023-03-20T01:49:28.458Z,21.10
2023-03-20T01:51:59.040Z,22.27
2023-03-20T01:54:31.222Z,23.27
2023-03-20T01:57:05.648Z,22.33
2023-03-20T01:59:36.278Z,22.00
2023-03-20T02:02:05.182Z,23.87
2023-03-20T02:04:35.878Z,24.43
2023-03-20T02:07:16.538Z,22.07
2023-03-20T02:09:56.165Z,22.90
2023-03-20T02:12:35.564Z,22.77
2023-03-20T02:15:05.612Z,21.80
2023-03-20T02:18:01.970Z,23.50
2023-03-20T02:20:58.229Z,21.80
2023-03-20T02:23:41.551Z,23.30
2023-03-20T02:26:19.716Z,22.90
2023-03-20T02:28:54.124Z,23.33
2023-03-20T02:31:33.750Z,23.37
2023-03-20T02:34:00.802Z,22.27
2023-03-20T02:36:30.454Z,21.67
2023-03-20T02:39:13.519Z,26.10
2023-03-20T02:41:46.768Z,25.17
2023-03-20T02:44:23.811Z,23.30
2023-03-20T02:46:58.228Z,23.97
2023-03-20T02:49:45.955Z,22.57
2023-03-20T02:52:31.289Z,27.83
2023-03-20T02:55:07.441Z,22.17
2023-03-20T02:57:34.540Z,24.87
2023-03-20T03:00:09.983Z,24.27
2023-03-20T03:02:41.982Z,23.87
2023-03-20T03:05:13.742Z,23.57
2023-03-20T03:07:42.344Z,23.23
2023-03-20T03:10:15.665Z,23.03
2023-03-20T03:12:48.011Z,24.37
2023-03-20T03:15:21.427Z,23.17
2023-03-20T03:17:49.661Z,22.27
2023-03-20T03:20:22.347Z,25.87
2023-03-20T03:22:49.696Z,23.20
2023-03-20T03:25:16.636Z,23.50
2023-03-20T03:27:45.838Z,21.53
2023-03-20T03:30:12.769Z,22.50
2023-03-20T03:32:50.627Z,25.57
2023-03-20T03:35:19.018Z,22.10
2023-03-20T03:37:49.805Z,25.13
2023-03-20T03:40:19.853Z,25.23
2023-03-20T03:42:55.719Z,24.13
2023-03-20T03:45:27.438Z,23.60
2023-03-20T03:48:01.520Z,23.90
2023-03-20T03:50:31.718Z,22.03
2023-03-20T03:53:02.930Z,23.13
2023-03-20T03:55:35.813Z,22.47
2023-03-20T03:58:11.969Z,23.80
2023-03-20T04:00:41.121Z,25.07
2023-03-20T04:03:09.073Z,24.27
2023-03-20T04:05:37.836Z,24.27
2023-03-20T04:08:05.975Z,24.00
2023-03-20T04:10:33.476Z,24.07
2023-03-20T04:13:00.553Z,22.93
2023-03-20T04:15:28.082Z,24.67
2023-03-20T04:17:55.822Z,25.43
2023-03-20T04:20:23.134Z,24.40
2023-03-20T04:22:50.127Z,25.93
2023-03-20T04:25:19.221Z,23.23
2023-03-20T04:27:46.950Z,26.23
2023-03-20T04:30:44.495Z,27.10
2023-03-20T04:33:25.252Z,32.53
2023-03-20T04:36:00.755Z,36.43
2023-03-20T04:38:27.654Z,35.33
2023-03-20T04:40:55.334Z,31.80
2023-03-20T04:43:22.358Z,30.27
2023-03-20T04:45:49.213Z,31.23
2023-03-20T04:48:16.239Z,32.00
2023-03-20T04:50:43.315Z,31.73
2023-03-20T04:53:10.211Z,32.67
2023-03-20T04:55:37.618Z,31.30
2023-03-20T04:58:04.673Z,33.83
2023-03-20T05:00:32.970Z,35.17
2023-03-20T05:03:00.400Z,33.53
2023-03-20T05:05:27.582Z,32.10
2023-03-20T05:07:54.915Z,32.07
2023-03-20T05:10:32.138Z,32.83
2023-03-20T05:13:05.636Z,32.83
2023-03-20T05:16:01.772Z,33.73
2023-03-20T05:18:38.184Z,31.67
2023-03-20T05:21:15.785Z,31.77
2023-03-20T05:24:10.582Z,35.13
2023-03-20T05:27:01.223Z,33.60
2023-03-20T05:29:46.452Z,33.43
2023-03-20T05:32:16.040Z,32.80
2023-03-20T05:35:07.264Z,31.77
2023-03-20T05:37:50.981Z,38.73
2023-03-20T05:40:39.414Z,34.20
2023-03-20T05:43:34.150Z,34.63
2023-03-20T05:46:19.027Z,39.43
2023-03-20T05:49:11.901Z,35.77
2023-03-20T05:52:13.985Z,31.63
2023-03-20T05:54:57.392Z,29.23
2023-03-20T05:57:39.442Z,28.77
2023-03-20T06:00:24.943Z,30.13
2023-03-20T06:03:12.451Z,29.37
2023-03-20T06:05:56.430Z,28.23
2023-03-20T06:08:23.434Z,30.43
2023-03-20T06:10:50.806Z,29.93
2023-03-20T06:13:17.819Z,29.70
2023-03-20T06:15:44.956Z,28.63
2023-03-20T06:18:16.329Z,32.13
2023-03-20T06:20:43.313Z,30.07
2023-03-20T06:23:10.188Z,29.13
2023-03-20T06:25:37.123Z,29.30
2023-03-20T06:28:04.610Z,28.20
2023-03-20T06:30:31.608Z,30.90
2023-03-20T06:32:58.557Z,31.80
2023-03-20T06:35:34.156Z,29.97
2023-03-20T06:38:01.770Z,32.67
2023-03-20T06:40:28.717Z,32.27
2023-03-20T06:42:56.334Z,32.53
2023-03-20T06:45:28.379Z,35.67
2023-03-20T06:48:00.473Z,29.60
2023-03-20T06:50:28.111Z,26.40
2023-03-20T06:52:58.038Z,23.53
2023-03-20T06:55:42.538Z,29.30
2023-03-20T06:58:10.544Z,31.80
2023-03-20T07:00:39.908Z,30.37
2023-03-20T07:03:08.549Z,30.60
2023-03-20T07:05:36.159Z,32.20
2023-03-20T07:08:07.872Z,30.90
2023-03-20T07:10:35.508Z,31.13
2023-03-20T07:13:02.433Z,33.73
2023-03-20T07:15:30.277Z,30.50
2023-03-20T07:17:57.466Z,31.17
2023-03-20T07:20:27.035Z,32.40
2023-03-20T07:22:53.990Z,32.93
2023-03-20T07:25:39.481Z,34.27
2023-03-20T07:28:09.174Z,36.40
2023-03-20T07:30:39.030Z,33.30
2023-03-20T07:33:06.739Z,33.43
2023-03-20T07:35:34.795Z,36.10
2023-03-20T07:38:01.990Z,35.23
2023-03-20T07:40:29.330Z,37.23
2023-03-20T07:43:01.414Z,35.93
2023-03-20T07:45:51.892Z,37.93
2023-03-20T07:48:19.792Z,38.13
2023-03-20T07:50:46.640Z,40.03
2023-03-20T07:53:13.652Z,41.90
2023-03-20T07:55:40.502Z,39.97
2023-03-20T07:58:10.625Z,43.30
2023-03-20T08:00:37.890Z,46.33
2023-03-20T08:03:04.892Z,41.73
2023-03-20T08:05:32.309Z,43.50
2023-03-20T08:07:59.385Z,43.50
2023-03-20T08:10:26.337Z,43.93
2023-03-20T08:12:53.283Z,42.70
2023-03-20T08:15:20.149Z,42.47
2023-03-20T08:17:47.126Z,41.77
2023-03-20T08:20:15.005Z,43.13
2023-03-20T08:22:42.927Z,42.03
2023-03-20T08:25:09.905Z,41.07
2023-03-20T08:27:37.267Z,39.70
2023-03-20T08:30:04.392Z,39.33
2023-03-20T08:32:31.278Z,39.17
2023-03-20T08:34:58.111Z,44.23
2023-03-20T08:37:24.970Z,39.23
2023-03-20T08:39:51.884Z,38.63
2023-03-20T08:54:56.210Z,39.17
2023-03-20T08:57:22.405Z,43.13
2023-03-20T08:59:48.491Z,38.00
2023-03-20T09:02:15.001Z,35.63
2023-03-20T09:04:41.506Z,35.70
2023-03-20T09:07:07.892Z,35.50
2023-03-20T09:09:33.986Z,41.13
2023-03-20T09:14:38.926Z,39.03
2023-03-20T09:17:05.499Z,38.57
2023-03-20T09:19:31.950Z,37.73
2023-03-20T09:21:58.810Z,37.63
2023-03-20T09:24:25.745Z,36.80
2023-03-20T09:26:52.700Z,36.00
2023-03-20T09:29:19.567Z,36.83
2023-03-20T09:31:46.564Z,37.60
2023-03-20T09:34:13.464Z,35.57
2023-03-20T09:36:40.223Z,33.93
2023-03-20T09:39:07.518Z,32.97
2023-03-20T09:41:52.849Z,36.77
2023-03-20T09:44:29.030Z,37.97
2023-03-20T09:47:20.515Z,42.73
2023-03-20T09:50:03.074Z,38.37
2023-03-20T09:52:35.352Z,36.67
2023-03-20T09:55:13.362Z,31.87
2023-03-20T09:57:41.937Z,34.60
2023-03-20T10:00:18.918Z,32.17
2023-03-20T10:02:46.127Z,32.70
2023-03-20T10:05:19.883Z,29.67
2023-03-20T10:07:46.937Z,33.40
2023-03-20T10:10:14.522Z,31.97
2023-03-20T10:12:58.257Z,32.50
2023-03-20T10:15:34.223Z,31.20
2023-03-20T10:18:07.394Z,33.93
2023-03-20T10:20:50.678Z,30.33
2023-03-20T10:23:34.950Z,31.73
2023-03-20T10:26:12.965Z,30.40
2023-03-20T10:28:47.174Z,29.73
2023-03-20T10:31:14.091Z,29.20
2023-03-20T10:33:56.142Z,30.27
2023-03-20T10:36:32.296Z,30.93
2023-03-20T10:39:00.112Z,30.10
2023-03-20T10:41:32.631Z,27.53
2023-03-20T10:44:00.853Z,26.20
2023-03-20T10:46:30.531Z,25.77
2023-03-20T10:49:00.568Z,26.47
2023-03-20T10:51:37.256Z,28.10
2023-03-20T10:54:04.871Z,24.03
2023-03-20T10:56:31.607Z,25.67
2023-03-20T10:59:03.878Z,23.60
2023-03-20T11:01:30.744Z,26.37
2023-03-20T11:03:57.680Z,25.43
2023-03-20T11:06:28.027Z,26.77
2023-03-20T11:08:54.838Z,24.00
2023-03-20T11:11:22.702Z,24.87
2023-03-20T11:13:49.609Z,24.27
2023-03-20T11:16:21.502Z,25.57
2023-03-20T11:18:49.642Z,23.87
2023-03-20T11:21:19.446Z,28.20
2023-03-20T11:23:46.430Z,27.93
2023-03-20T11:26:17.478Z,27.77
2023-03-20T11:28:48.681Z,25.77
2023-03-20T11:31:20.596Z,26.20
2023-03-20T11:33:52.121Z,23.60
2023-03-20T11:36:28.068Z,25.37
2023-03-20T11:38:59.475Z,23.97
2023-03-20T11:41:27.841Z,22.97
2023-03-20T11:43:54.941Z,23.30
2023-03-20T11:46:23.495Z,23.00
2023-03-20T11:49:09.366Z,21.47
2023-03-20T11:51:36.892Z,21.60
2023-03-20T11:54:07.971Z,22.13
2023-03-20T11:56:35.715Z,19.37
2023-03-20T11:59:18.439Z,20.17
2023-03-20T12:01:49.005Z,18.57
2023-03-20T12:04:18.093Z,19.57
2023-03-20T12:06:51.564Z,19.13
2023-03-20T12:09:21.603Z,20.10
2023-03-20T12:12:07.202Z,19.63
2023-03-20T12:14:52.886Z,19.33
2023-03-20T12:17:19.662Z,18.43
2023-03-20T12:19:47.552Z,19.00
2023-03-20T12:22:27.358Z,20.10
2023-03-20T12:24:54.188Z,21.53
2023-03-20T12:27:34.756Z,19.90
2023-03-20T12:30:25.074Z,20.00
2023-03-20T12:33:00.912Z,18.87
2023-03-20T12:35:29.325Z,17.47
2023-03-20T12:37:56.111Z,16.17
2023-03-20T12:40:28.096Z,18.03
2023-03-20T12:43:00.099Z,16.50
2023-03-20T12:45:44.716Z,16.93
2023-03-20T12:48:30.493Z,18.80
2023-03-20T12:51:03.594Z,17.30
2023-03-20T12:53:42.677Z,16.87
2023-03-20T12:56:12.463Z,17.00
2023-03-20T12:58:52.744Z,18.73
2023-03-20T13:01:29.322Z,17.57
2023-03-20T13:04:05.443Z,17.83
2023-03-20T13:06:39.665Z,18.13
2023-03-20T13:09:16.189Z,18.20
2023-03-20T13:12:02.277Z,16.40
2023-03-20T13:14:43.574Z,19.33
2023-03-20T13:17:33.980Z,19.20
2023-03-20T13:20:01.077Z,20.43
2023-03-20T13:22:44.280Z,19.87
2023-03-20T13:25:13.990Z,20.50
2023-03-20T13:27:52.976Z,19.87
2023-03-20T13:30:41.600Z,19.33
2023-03-20T13:33:38.200Z,18.50
2023-03-20T13:36:07.936Z,19.77
2023-03-20T13:38:36.881Z,18.03
2023-03-20T13:41:05.961Z,19.00
2023-03-20T13:43:33.070Z,20.97
2023-03-20T13:46:04.874Z,21.67
2023-03-20T13:48:36.511Z,20.93
2023-03-20T13:51:22.202Z,21.30
2023-03-20T13:54:00.846Z,20.40
2023-03-20T13:56:28.100Z,20.90
2023-03-20T13:58:59.193Z,18.57
2023-03-20T14:01:35.833Z,20.67
2023-03-20T14:04:03.232Z,19.30
2023-03-20T14:06:32.832Z,19.70
2023-03-20T14:09:00.079Z,19.17
2023-03-20T14:11:32.825Z,19.90
2023-03-20T14:14:05.900Z,20.60
2023-03-20T14:16:32.839Z,20.27
2023-03-20T14:19:07.357Z,19.83
2023-03-20T14:21:35.141Z,20.97
2023-03-20T14:24:06.676Z,20.93
2023-03-20T14:26:38.452Z,19.70
2023-03-20T14:29:11.362Z,21.37
2023-03-20T14:31:39.186Z,21.60
2023-03-20T14:34:12.157Z,24.07
2023-03-20T14:36:46.752Z,22.83
2023-03-20T14:39:13.644Z,23.07
2023-03-20T14:41:57.517Z,23.40
2023-03-20T14:44:24.413Z,22.30
2023-03-20T14:46:57.203Z,21.20
2023-03-20T14:49:33.130Z,24.07
2023-03-20T14:52:22.970Z,22.37
2023-03-20T14:54:54.167Z,23.53
2023-03-20T14:57:45.481Z,22.50
2023-03-20T15:00:23.495Z,19.63
2023-03-20T15:02:54.597Z,18.70
2023-03-20T15:05:32.456Z,20.27
2023-03-20T15:08:04.560Z,19.67
2023-03-20T15:10:32.620Z,18.23
2023-03-20T15:12:59.651Z,17.97
2023-03-20T15:15:28.156Z,17.07
2023-03-20T15:17:55.027Z,17.40
2023-03-20T15:20:23.564Z,17.63
2023-03-20T15:22:51.754Z,17.97
2023-03-20T15:25:19.690Z,19.30
2023-03-20T15:27:47.150Z,20.50
2023-03-20T15:30:15.688Z,19.17
2023-03-20T15:32:45.839Z,20.10
2023-03-20T15:35:17.794Z,19.70
2023-03-20T15:37:46.389Z,18.57
2023-03-20T15:40:49.329Z,20.60
2023-03-20T15:43:20.252Z,17.20
2023-03-20T15:45:47.201Z,17.97
2023-03-20T15:48:19.075Z,17.10
2023-03-20T15:50:50.543Z,20.57
2023-03-20T15:53:19.266Z,21.73
2023-03-20T15:56:14.867Z,20.03
2023-03-20T15:58:45.035Z,19.07
2023-03-20T16:01:16.168Z,23.83
2023-03-20T16:03:43.131Z,22.73
2023-03-20T16:06:11.362Z,24.70
2023-03-20T16:08:39.359Z,19.23
2023-03-20T16:11:07.964Z,20.37
2023-03-20T16:13:39.200Z,23.10
2023-03-20T16:16:07.912Z,21.70
2023-03-20T16:18:36.954Z,20.93
2023-03-20T16:21:05.881Z,26.93
2023-03-20T16:23:37.978Z,24.37
2023-03-20T16:26:06.179Z,35.23
2023-03-20T16:28:35.987Z,26.60
2023-03-20T16:31:10.908Z,16.43
2023-03-20T16:33:38.916Z,18.63
2023-03-20T16:36:06.332Z,15.63
2023-03-20T16:38:34.738Z,14.30
2023-03-20T16:41:22.275Z,17.20
2023-03-20T16:43:50.281Z,14.73
2023-03-20T16:46:18.593Z,15.27
2023-03-20T16:48:45.575Z,12.87
2023-03-20T16:51:18.531Z,13.10
2023-03-20T16:53:46.607Z,12.47
2023-03-20T16:56:17.660Z,13.87
2023-03-20T16:58:45.926Z,16.93
2023-03-20T17:01:18.338Z,17.07
2023-03-20T17:03:50.296Z,20.50
2023-03-20T17:06:21.655Z,15.07
2023-03-20T17:08:48.507Z,12.40
2023-03-20T17:11:17.437Z,14.90
2023-03-20T17:13:44.240Z,15.70
2023-03-20T17:16:14.928Z,12.73
2023-03-20T17:31:15.387Z,9.30
2023-03-20T17:33:42.568Z,9.83
2023-03-20T17:36:21.201Z,9.50
2023-03-20T17:38:48.153Z,15.30
2023-03-20T17:41:19.907Z,12.73
2023-03-20T17:43:47.567Z,10.27
2023-03-20T17:46:21.877Z,13.53
2023-03-20T17:48:49.258Z,13.17
2023-03-20T17:51:16.460Z,16.77
2023-03-20T17:53:43.815Z,18.07
2023-03-20T17:56:11.792Z,15.37
2023-03-20T17:58:39.614Z,11.93
2023-03-20T18:01:07.262Z,13.27
2023-03-20T18:03:34.715Z,12.67
2023-03-20T18:06:01.722Z,10.77
2023-03-20T18:08:28.644Z,11.67
2023-03-20T18:10:55.698Z,15.03
2023-03-20T18:13:23.916Z,15.97
2023-03-20T18:15:52.152Z,14.13
2023-03-20T18:18:19.517Z,16.70
2023-03-20T18:20:47.630Z,16.50
2023-03-20T18:23:14.951Z,16.67
2023-03-20T18:25:42.112Z,17.90
2023-03-20T18:28:14.697Z,16.60
2023-03-20T18:30:41.960Z,18.07
2023-03-20T18:33:08.856Z,17.80
2023-03-20T18:35:36.383Z,14.63
2023-03-20T18:38:03.830Z,14.40
2023-03-20T18:40:32.929Z,14.47
2023-03-20T18:42:59.799Z,17.40
2023-03-20T18:45:27.530Z,15.20
2023-03-20T18:47:54.988Z,15.40
2023-03-20T18:50:26.309Z,25.20
2023-03-20T18:52:54.221Z,21.67
2023-03-20T18:55:23.157Z,21.57
2023-03-20T18:57:50.331Z,27.93
2023-03-20T19:00:21.468Z,21.80
2023-03-20T19:02:48.872Z,20.57
2023-03-20T19:05:15.760Z,19.13
2023-03-20T19:07:42.847Z,21.83
2023-03-20T19:10:22.554Z,14.10
2023-03-20T19:12:49.598Z,18.90
2023-03-20T19:15:16.596Z,15.77
2023-03-20T19:17:43.403Z,10.97
2023-03-20T19:20:24.000Z,11.27
2023-03-20T19:22:51.020Z,11.03
2023-03-20T19:25:17.779Z,11.33
2023-03-20T19:27:46.274Z,10.73
2023-03-20T19:30:42.466Z,10.73
2023-03-20T19:33:10.231Z,10.20
2023-03-20T19:36:01.942Z,10.40
2023-03-20T19:38:24.271Z,10.77
2023-03-20T19:40:54.233Z,14.93
2023-03-20T19:43:24.415Z,14.87
2023-03-20T19:45:57.259Z,24.80
2023-03-20T19:48:27.043Z,22.20
2023-03-20T19:50:55.525Z,20.03
2023-03-20T19:53:25.121Z,18.23
2023-03-20T19:55:53.316Z,18.47
2023-03-20T19:58:20.517Z,22.43
2023-03-20T20:00:59.218Z,22.97
2023-03-20T20:03:26.569Z,22.67
2023-03-20T20:05:54.379Z,23.27
2023-03-20T20:08:41.413Z,22.97
2023-03-20T20:11:09.978Z,20.13
2023-03-20T20:13:47.009Z,22.07
2023-03-20T20:16:23.719Z,25.60
2023-03-20T20:18:50.608Z,25.20
2023-03-20T20:22:10.072Z,25.53
2023-03-20T20:24:04.541Z,25.17
2023-03-20T20:26:36.080Z,27.23
2023-03-20T20:29:05.606Z,26.23
2023-03-20T20:31:32.550Z,25.90
2023-03-20T20:34:38.640Z,25.07
2023-03-20T20:39:33.166Z,26.20
2023-03-20T20:42:00.015Z,24.23
2023-03-20T20:44:26.888Z,24.73
2023-03-20T20:46:53.710Z,23.47
2023-03-20T20:49:20.801Z,23.47
2023-03-20T20:51:48.389Z,21.83
2023-03-20T20:54:15.850Z,20.13
2023-03-20T20:56:42.775Z,22.37
2023-03-20T20:59:09.702Z,23.50
2023-03-20T21:01:36.656Z,23.47
2023-03-20T21:04:03.674Z,23.63
2023-03-20T21:07:03.552Z,23.27
2023-03-20T21:09:17.605Z,22.20
2023-03-20T21:11:44.668Z,22.33
2023-03-20T21:14:11.524Z,21.30
2023-03-20T21:16:38.498Z,22.00
2023-03-20T21:19:05.410Z,21.57
2023-03-20T21:21:35.620Z,20.43
2023-03-20T21:24:03.457Z,21.70
2023-03-20T21:26:31.600Z,20.57
2023-03-20T21:28:58.701Z,20.50
2023-03-20T21:31:29.543Z,21.60
2023-03-20T21:33:59.280Z,19.50
2023-03-20T21:36:27.906Z,19.43
2023-03-20T21:39:08.322Z,20.63
2023-03-20T21:41:38.042Z,19.57
2023-03-20T21:44:05.912Z,22.53
2023-03-20T21:52:54.821Z,23.47
2023-03-20T22:03:44.109Z,23.43
2023-03-20T22:12:28.307Z,24.67
2023-03-20T22:15:18.330Z,24.77
2023-03-20T22:20:53.433Z,24.57
2023-03-20T22:26:47.316Z,24.80
2023-03-20T22:29:14.931Z,23.60
2023-03-20T22:34:46.502Z,24.47
2023-03-20T22:42:52.779Z,25.87
2023-03-20T22:45:13.948Z,27.17
2023-03-20T22:47:41.376Z,27.60
2023-03-20T22:50:09.103Z,26.87
2023-03-20T22:52:48.250Z,25.47
2023-03-20T22:55:17.518Z,25.30
2023-03-20T22:57:59.527Z,24.67
2023-03-20T23:00:32.502Z,25.50
2023-03-20T23:03:12.910Z,24.63
2023-03-20T23:05:42.429Z,25.20
2023-03-20T23:08:11.595Z,23.90
2023-03-20T23:10:42.368Z,22.63
2023-03-20T23:13:10.112Z,22.73
2023-03-20T23:15:36.927Z,21.20
2023-03-20T23:18:04.821Z,21.67
2023-03-20T23:20:33.042Z,21.13
2023-03-20T23:23:00.531Z,20.23
2023-03-20T23:25:38.773Z,18.63
2023-03-20T23:28:10.188Z,19.40
2023-03-20T23:30:46.240Z,20.07
2023-03-20T23:33:17.672Z,19.50
2023-03-20T23:35:45.854Z,16.90
2023-03-20T23:38:13.612Z,17.13
2023-03-20T23:40:40.753Z,18.00
2023-03-20T23:43:07.630Z,16.40
2023-03-20T23:45:35.264Z,15.80
2023-03-20T23:48:02.512Z,15.83
2023-03-20T23:50:39.803Z,16.17
2023-03-20T23:53:20.392Z,17.20
2023-03-20T23:55:48.847Z,16.10
2023-03-20T23:58:15.843Z,15.70
